sensor_id;sensor_type;location;lat;lon;timestamp;pressure;altitude;pressure_sealevel;temperature;humidity
80976;BME280;70437;49.466;11.002;2023-11-22T00:00:12;98538.41;;;5.49;100.00
80976;BME280;70437;49.466;11.002;2023-11-22T00:02:41;98541.53;;;5.52;100.00
80976;BME280;70437;49.466;11.002;2023-11-22T00:05:11;98545.81;;;5.53;100.00
80976;BME280;70437;49.466;11.002;2023-11-22T00:07:40;98548.59;;;5.45;100.00
80976;BME280;70437;49.466;11.002;2023-11-22T00:10:11;98545.81;;;5.53;100.00
80976;BME280;70437;49.466;11.002;2023-11-22T00:12:42;98539.53;;;5.54;100.00
80976;BME280;70437;49.466;11.002;2023-11-22T00:15:11;98541.50;;;5.38;100.00
80976;BME280;70437;49.466;11.002;2023-11-22T00:17:46;98543.97;;;5.39;100.00
80976;BME280;70437;49.466;11.002;2023-11-22T00:20:20;98545.06;;;5.30;100.00
80976;BME280;70437;49.466;11.002;2023-11-22T00:22:49;98554.50;;;5.32;100.00
80976;BME280;70437;49.466;11.002;2023-11-22T00:25:20;98551.72;;;5.26;100.00
80976;BME280;70437;49.466;11.002;2023-11-22T00:27:49;98552.94;;;5.23;100.00
80976;BME280;70437;49.466;11.002;2023-11-22T00:30:18;98553.94;;;5.22;100.00
80976;BME280;70437;49.466;11.002;2023-11-22T00:32:47;98553.09;;;5.22;100.00
80976;BME280;70437;49.466;11.002;2023-11-22T00:35:17;98557.28;;;5.16;100.00
80976;BME280;70437;49.466;11.002;2023-11-22T00:37:46;98553.25;;;5.05;100.00
80976;BME280;70437;49.466;11.002;2023-11-22T00:40:16;98556.00;;;5.12;100.00
80976;BME280;70437;49.466;11.002;2023-11-22T00:42:48;98555.53;;;5.08;100.00
80976;BME280;70437;49.466;11.002;2023-11-22T00:45:22;98558.31;;;5.15;100.00
80976;BME280;70437;49.466;11.002;2023-11-22T00:47:51;98553.88;;;5.07;100.00
80976;BME280;70437;49.466;11.002;2023-11-22T00:50:22;98555.78;;;4.76;100.00
80976;BME280;70437;49.466;11.002;2023-11-22T00:52:54;98574.34;;;4.76;100.00
80976;BME280;70437;49.466;11.002;2023-11-22T00:55:22;98576.06;;;4.38;100.00
80976;BME280;70437;49.466;11.002;2023-11-22T00:57:54;98581.97;;;4.79;100.00
80976;BME280;70437;49.466;11.002;2023-11-22T01:00:23;98591.22;;;4.60;100.00
80976;BME280;70437;49.466;11.002;2023-11-22T01:02:53;98594.06;;;4.50;100.00
80976;BME280;70437;49.466;11.002;2023-11-22T01:05:23;98596.72;;;4.50;100.00
80976;BME280;70437;49.466;11.002;2023-11-22T01:07:53;98603.50;;;4.53;100.00
80976;BME280;70437;49.466;11.002;2023-11-22T01:10:24;98600.38;;;4.49;100.00
80976;BME280;70437;49.466;11.002;2023-11-22T01:12:55;98607.97;;;4.61;100.00
80976;BME280;70437;49.466;11.002;2023-11-22T01:15:25;98605.53;;;4.51;100.00
80976;BME280;70437;49.466;11.002;2023-11-22T01:17:57;98601.41;;;4.40;100.00
80976;BME280;70437;49.466;11.002;2023-11-22T01:20:28;98607.69;;;4.47;100.00
80976;BME280;70437;49.466;11.002;2023-11-22T01:22:57;98608.56;;;4.31;100.00
80976;BME280;70437;49.466;11.002;2023-11-22T01:25:27;98614.84;;;4.47;100.00
80976;BME280;70437;49.466;11.002;2023-11-22T01:27:58;98619.03;;;4.33;100.00
80976;BME280;70437;49.466;11.002;2023-11-22T01:30:28;98624.00;;;4.28;100.00
80976;BME280;70437;49.466;11.002;2023-11-22T01:32:57;98619.84;;;4.34;100.00
80976;BME280;70437;49.466;11.002;2023-11-22T01:35:26;98620.38;;;4.29;100.00
80976;BME280;70437;49.466;11.002;2023-11-22T01:37:56;98607.41;;;4.34;100.00
80976;BME280;70437;49.466;11.002;2023-11-22T01:40:27;98620.72;;;4.18;100.00
80976;BME280;70437;49.466;11.002;2023-11-22T01:43:03;98618.91;;;4.18;100.00
80976;BME280;70437;49.466;11.002;2023-11-22T01:45:33;98626.66;;;4.28;100.00
80976;BME280;70437;49.466;11.002;2023-11-22T01:48:03;98625.22;;;4.17;100.00
80976;BME280;70437;49.466;11.002;2023-11-22T01:50:32;98623.69;;;4.23;100.00
80976;BME280;70437;49.466;11.002;2023-11-22T01:53:03;98631.84;;;4.13;100.00
80976;BME280;70437;49.466;11.002;2023-11-22T01:55:35;98630.41;;;4.02;100.00
80976;BME280;70437;49.466;11.002;2023-11-22T01:58:06;98635.69;;;4.02;100.00
80976;BME280;70437;49.466;11.002;2023-11-22T02:00:39;98640.81;;;4.12;100.00
80976;BME280;70437;49.466;11.002;2023-11-22T02:03:10;98640.00;;;4.03;100.00
80976;BME280;70437;49.466;11.002;2023-11-22T02:05:43;98632.34;;;4.09;100.00
80976;BME280;70437;49.466;11.002;2023-11-22T02:08:15;98639.28;;;4.18;100.00
80976;BME280;70437;49.466;11.002;2023-11-22T02:10:57;98639.47;;;4.16;100.00
80976;BME280;70437;49.466;11.002;2023-11-22T02:13:32;98637.47;;;4.10;100.00
80976;BME280;70437;49.466;11.002;2023-11-22T02:16:03;98638.34;;;4.02;100.00
80976;BME280;70437;49.466;11.002;2023-11-22T02:18:33;98640.00;;;4.03;100.00
80976;BME280;70437;49.466;11.002;2023-11-22T02:21:07;98637.38;;;3.87;100.00
80976;BME280;70437;49.466;11.002;2023-11-22T02:23:38;98652.97;;;3.66;100.00
80976;BME280;70437;49.466;11.002;2023-11-22T02:26:07;98652.31;;;3.72;100.00
80976;BME280;70437;49.466;11.002;2023-11-22T02:28:36;98657.63;;;3.72;100.00
80976;BME280;70437;49.466;11.002;2023-11-22T02:31:07;98658.44;;;3.80;100.00
80976;BME280;70437;49.466;11.002;2023-11-22T02:33:37;98664.25;;;3.84;100.00
80976;BME280;70437;49.466;11.002;2023-11-22T02:36:08;98662.41;;;3.76;100.00
80976;BME280;70437;49.466;11.002;2023-11-22T02:38:42;98665.88;;;3.77;100.00
80976;BME280;70437;49.466;11.002;2023-11-22T02:41:16;98671.88;;;3.63;100.00
80976;BME280;70437;49.466;11.002;2023-11-22T02:43:47;98666.56;;;3.71;100.00
80976;BME280;70437;49.466;11.002;2023-11-22T02:46:16;98667.41;;;3.63;100.00
80976;BME280;70437;49.466;11.002;2023-11-22T02:48:48;98666.25;;;3.58;100.00
80976;BME280;70437;49.466;11.002;2023-11-22T02:51:17;98663.91;;;3.63;100.00
80976;BME280;70437;49.466;11.002;2023-11-22T02:53:51;98660.44;;;3.62;100.00
80976;BME280;70437;49.466;11.002;2023-11-22T02:56:21;98673.84;;;3.52;100.00
80976;BME280;70437;49.466;11.002;2023-11-22T02:58:51;98677.97;;;3.39;100.00
80976;BME280;70437;49.466;11.002;2023-11-22T03:01:21;98683.25;;;3.39;100.00
80976;BME280;70437;49.466;11.002;2023-11-22T03:03:50;98685.78;;;3.40;100.00
80976;BME280;70437;49.466;11.002;2023-11-22T03:06:20;98690.38;;;3.38;100.00
80976;BME280;70437;49.466;11.002;2023-11-22T03:08:51;98695.34;;;3.33;100.00
80976;BME280;70437;49.466;11.002;2023-11-22T03:11:22;98701.81;;;3.39;100.00
80976;BME280;70437;49.466;11.002;2023-11-22T03:13:52;98693.06;;;3.54;100.00
80976;BME280;70437;49.466;11.002;2023-11-22T03:16:23;98695.38;;;3.41;100.00
80976;BME280;70437;49.466;11.002;2023-11-22T03:18:53;98695.88;;;3.53;100.00
80976;BME280;70437;49.466;11.002;2023-11-22T03:21:23;98698.69;;;3.51;100.00
80976;BME280;70437;49.466;11.002;2023-11-22T03:23:59;98701.53;;;3.66;100.00
80976;BME280;70437;49.466;11.002;2023-11-22T03:26:29;98703.81;;;3.61;100.00
80976;BME280;70437;49.466;11.002;2023-11-22T03:28:59;98702.66;;;3.72;100.00
80976;BME280;70437;49.466;11.002;2023-11-22T03:31:28;98713.41;;;3.70;100.00
80976;BME280;70437;49.466;11.002;2023-11-22T03:33:57;98715.91;;;3.88;100.00
80976;BME280;70437;49.466;11.002;2023-11-22T03:36:27;98717.91;;;3.94;100.00
80976;BME280;70437;49.466;11.002;2023-11-22T03:38:57;98723.03;;;3.96;100.00
80976;BME280;70437;49.466;11.002;2023-11-22T03:41:26;98712.59;;;3.94;100.00
80976;BME280;70437;49.466;11.002;2023-11-22T03:43:55;98713.25;;;3.88;100.00
80976;BME280;70437;49.466;11.002;2023-11-22T03:46:26;98716.06;;;3.87;100.00
80976;BME280;70437;49.466;11.002;2023-11-22T03:48:57;98710.63;;;3.72;100.00
80976;BME280;70437;49.466;11.002;2023-11-22T03:51:30;98726.53;;;3.72;100.00
80976;BME280;70437;49.466;11.002;2023-11-22T03:54:02;98735.47;;;3.87;100.00
80976;BME280;70437;49.466;11.002;2023-11-22T03:56:32;98738.47;;;3.84;100.00
80976;BME280;70437;49.466;11.002;2023-11-22T03:59:02;98730.66;;;3.83;100.00
80976;BME280;70437;49.466;11.002;2023-11-22T04:01:32;98733.81;;;3.86;100.00
80976;BME280;70437;49.466;11.002;2023-11-22T04:04:02;98740.25;;;3.84;100.00
80976;BME280;70437;49.466;11.002;2023-11-22T04:06:34;98755.84;;;3.87;100.00
80976;BME280;70437;49.466;11.002;2023-11-22T04:09:05;98764.47;;;3.80;100.00
80976;BME280;70437;49.466;11.002;2023-11-22T04:11:40;98772.75;;;3.77;100.00
80976;BME280;70437;49.466;11.002;2023-11-22T04:14:09;98755.19;;;3.85;100.00
80976;BME280;70437;49.466;11.002;2023-11-22T04:16:43;98778.03;;;3.86;100.00
80976;BME280;70437;49.466;11.002;2023-11-22T04:19:12;98781.84;;;3.75;100.00
80976;BME280;70437;49.466;11.002;2023-11-22T04:21:42;98793.59;;;3.64;100.00
80976;BME280;70437;49.466;11.002;2023-11-22T04:24:15;98789.63;;;3.68;100.00
80976;BME280;70437;49.466;11.002;2023-11-22T04:26:45;98783.84;;;3.73;100.00
80976;BME280;70437;49.466;11.002;2023-11-22T04:29:15;98792.31;;;3.85;100.00
80976;BME280;70437;49.466;11.002;2023-11-22T04:31:46;98795.91;;;3.84;100.00
80976;BME280;70437;49.466;11.002;2023-11-22T04:34:16;98797.59;;;3.76;100.00
80976;BME280;70437;49.466;11.002;2023-11-22T04:36:46;98802.56;;;3.88;100.00
80976;BME280;70437;49.466;11.002;2023-11-22T04:39:17;98796.59;;;3.77;100.00
80976;BME280;70437;49.466;11.002;2023-11-22T04:41:46;98804.38;;;3.87;100.00
80976;BME280;70437;49.466;11.002;2023-11-22T04:44:17;98802.41;;;3.89;100.00
80976;BME280;70437;49.466;11.002;2023-11-22T04:46:49;98808.22;;;3.85;100.00
80976;BME280;70437;49.466;11.002;2023-11-22T04:49:22;98806.53;;;3.75;100.00
80976;BME280;70437;49.466;11.002;2023-11-22T04:51:53;98815.81;;;3.79;100.00
80976;BME280;70437;49.466;11.002;2023-11-22T04:54:25;98834.69;;;3.76;100.00
80976;BME280;70437;49.466;11.002;2023-11-22T04:56:55;98831.22;;;3.76;100.00
80976;BME280;70437;49.466;11.002;2023-11-22T04:59:24;98821.28;;;3.78;100.00
80976;BME280;70437;49.466;11.002;2023-11-22T05:01:54;98825.72;;;3.69;100.00
80976;BME280;70437;49.466;11.002;2023-11-22T05:04:24;98828.88;;;3.73;100.00
80976;BME280;70437;49.466;11.002;2023-11-22T05:06:56;98824.41;;;3.73;100.00
80976;BME280;70437;49.466;11.002;2023-11-22T05:09:29;98824.22;;;3.75;100.00
80976;BME280;70437;49.466;11.002;2023-11-22T05:11:58;98819.91;;;3.66;100.00
80976;BME280;70437;49.466;11.002;2023-11-22T05:14:28;98809.69;;;3.71;100.00
80976;BME280;70437;49.466;11.002;2023-11-22T05:16:58;98812.47;;;3.61;100.00
80976;BME280;70437;49.466;11.002;2023-11-22T05:19:27;98825.56;;;3.63;100.00
80976;BME280;70437;49.466;11.002;2023-11-22T05:21:58;98827.03;;;3.49;100.00
80976;BME280;70437;49.466;11.002;2023-11-22T05:24:30;98831.28;;;3.42;100.00
80976;BME280;70437;49.466;11.002;2023-11-22T05:27:01;98836.41;;;3.35;100.00
80976;BME280;70437;49.466;11.002;2023-11-22T05:29:31;98845.03;;;3.37;100.00
80976;BME280;70437;49.466;11.002;2023-11-22T05:32:14;98857.09;;;3.32;100.00
80976;BME280;70437;49.466;11.002;2023-11-22T05:34:45;98856.06;;;3.24;100.00
80976;BME280;70437;49.466;11.002;2023-11-22T05:37:14;98851.28;;;3.28;100.00
80976;BME280;70437;49.466;11.002;2023-11-22T05:39:47;98851.44;;;3.35;100.00
80976;BME280;70437;49.466;11.002;2023-11-22T05:42:17;98861.69;;;3.29;100.00
80976;BME280;70437;49.466;11.002;2023-11-22T05:44:47;98872.78;;;3.25;100.00
80976;BME280;70437;49.466;11.002;2023-11-22T05:47:18;98870.47;;;3.30;100.00
80976;BME280;70437;49.466;11.002;2023-11-22T05:49:47;98873.63;;;3.34;100.00
80976;BME280;70437;49.466;11.002;2023-11-22T05:52:20;98880.25;;;3.29;100.00
80976;BME280;70437;49.466;11.002;2023-11-22T05:54:53;98884.59;;;3.39;100.00
80976;BME280;70437;49.466;11.002;2023-11-22T05:57:24;98883.09;;;3.36;100.00
80976;BME280;70437;49.466;11.002;2023-11-22T05:59:55;98889.66;;;3.24;100.00
80976;BME280;70437;49.466;11.002;2023-11-22T06:02:24;98890.69;;;3.31;100.00
80976;BME280;70437;49.466;11.002;2023-11-22T06:04:56;98881.84;;;3.48;100.00
80976;BME280;70437;49.466;11.002;2023-11-22T06:07:27;98896.19;;;3.38;100.00
80976;BME280;70437;49.466;11.002;2023-11-22T06:09:58;98897.81;;;3.31;100.00
80976;BME280;70437;49.466;11.002;2023-11-22T06:12:29;98895.72;;;3.16;100.00
80976;BME280;70437;49.466;11.002;2023-11-22T06:14:58;98902.84;;;3.16;100.00
80976;BME280;70437;49.466;11.002;2023-11-22T06:17:27;98908.97;;;3.16;100.00
80976;BME280;70437;49.466;11.002;2023-11-22T06:19:59;98913.84;;;3.29;100.00
80976;BME280;70437;49.466;11.002;2023-11-22T06:22:31;98916.97;;;3.24;100.00
80976;BME280;70437;49.466;11.002;2023-11-22T06:25:02;98920.69;;;3.40;100.00
80976;BME280;70437;49.466;11.002;2023-11-22T06:27:32;98932.94;;;3.41;100.00
80976;BME280;70437;49.466;11.002;2023-11-22T06:30:05;98933.44;;;3.36;100.00
80976;BME280;70437;49.466;11.002;2023-11-22T06:32:35;98940.53;;;3.36;100.00
80976;BME280;70437;49.466;11.002;2023-11-22T06:35:06;98945.91;;;3.44;100.00
80976;BME280;70437;49.466;11.002;2023-11-22T06:37:41;98959.22;;;3.34;100.00
80976;BME280;70437;49.466;11.002;2023-11-22T06:40:13;98963.88;;;3.32;100.00
80976;BME280;70437;49.466;11.002;2023-11-22T06:42:46;98963.16;;;3.22;100.00
80976;BME280;70437;49.466;11.002;2023-11-22T06:45:16;98964.13;;;3.21;100.00
80976;BME280;70437;49.466;11.002;2023-11-22T06:47:45;98955.00;;;3.15;100.00
80976;BME280;70437;49.466;11.002;2023-11-22T06:50:18;98968.84;;;3.35;100.00
80976;BME280;70437;49.466;11.002;2023-11-22T06:52:50;98974.16;;;3.35;100.00
80976;BME280;70437;49.466;11.002;2023-11-22T06:55:21;98970.34;;;3.38;100.00
80976;BME280;70437;49.466;11.002;2023-11-22T06:57:51;98968.06;;;3.17;100.00
80976;BME280;70437;49.466;11.002;2023-11-22T07:00:21;98977.03;;;2.98;100.00
80976;BME280;70437;49.466;11.002;2023-11-22T07:02:50;98975.75;;;3.02;100.00
80976;BME280;70437;49.466;11.002;2023-11-22T07:05:19;98981.41;;;3.07;100.00
80976;BME280;70437;49.466;11.002;2023-11-22T07:07:49;98983.75;;;3.10;100.00
80976;BME280;70437;49.466;11.002;2023-11-22T07:10:21;98977.47;;;3.11;100.00
80976;BME280;70437;49.466;11.002;2023-11-22T07:12:51;98977.72;;;3.00;100.00
80976;BME280;70437;49.466;11.002;2023-11-22T07:15:20;98978.34;;;3.20;100.00
80976;BME280;70437;49.466;11.002;2023-11-22T07:17:49;98984.63;;;3.19;100.00
80976;BME280;70437;49.466;11.002;2023-11-22T07:20:22;98987.94;;;3.21;100.00
80976;BME280;70437;49.466;11.002;2023-11-22T07:22:53;98988.16;;;3.27;100.00
80976;BME280;70437;49.466;11.002;2023-11-22T07:25:27;98995.44;;;3.25;100.00
80976;BME280;70437;49.466;11.002;2023-11-22T07:27:58;98999.84;;;3.17;100.00
80976;BME280;70437;49.466;11.002;2023-11-22T07:30:28;99001.53;;;3.18;100.00
80976;BME280;70437;49.466;11.002;2023-11-22T07:33:00;98998.00;;;3.35;100.00
80976;BME280;70437;49.466;11.002;2023-11-22T07:35:30;99002.34;;;3.44;100.00
80976;BME280;70437;49.466;11.002;2023-11-22T07:38:04;99005.94;;;3.35;100.00
80976;BME280;70437;49.466;11.002;2023-11-22T07:40:57;99012.53;;;3.31;100.00
80976;BME280;70437;49.466;11.002;2023-11-22T07:43:27;99013.78;;;3.19;100.00
80976;BME280;70437;49.466;11.002;2023-11-22T07:45:56;99023.97;;;3.32;100.00
80976;BME280;70437;49.466;11.002;2023-11-22T07:48:30;99023.53;;;3.18;100.00
80976;BME280;70437;49.466;11.002;2023-11-22T07:50:59;99025.72;;;3.23;100.00
80976;BME280;70437;49.466;11.002;2023-11-22T07:53:30;99033.09;;;3.37;100.00
80976;BME280;70437;49.466;11.002;2023-11-22T07:56:04;99044.09;;;3.24;100.00
80976;BME280;70437;49.466;11.002;2023-11-22T07:58:34;99045.56;;;3.01;100.00
80976;BME280;70437;49.466;11.002;2023-11-22T08:01:04;99045.72;;;3.17;100.00
80976;BME280;70437;49.466;11.002;2023-11-22T08:03:35;99046.94;;;3.05;100.00
80976;BME280;70437;49.466;11.002;2023-11-22T08:06:06;99049.31;;;3.16;100.00
80976;BME280;70437;49.466;11.002;2023-11-22T08:08:40;99052.34;;;3.21;100.00
80976;BME280;70437;49.466;11.002;2023-11-22T08:11:15;99066.34;;;3.32;100.00
80976;BME280;70437;49.466;11.002;2023-11-22T08:13:46;99060.81;;;3.25;100.00
80976;BME280;70437;49.466;11.002;2023-11-22T08:16:15;99063.47;;;3.25;100.00
80976;BME280;70437;49.466;11.002;2023-11-22T08:18:49;99059.16;;;3.24;100.00
80976;BME280;70437;49.466;11.002;2023-11-22T08:21:18;99063.56;;;2.97;100.00
80976;BME280;70437;49.466;11.002;2023-11-22T08:23:49;99059.00;;;3.25;100.00
80976;BME280;70437;49.466;11.002;2023-11-22T08:26:21;99067.63;;;3.27;100.00
80976;BME280;70437;49.466;11.002;2023-11-22T08:28:54;99059.84;;;3.26;100.00
80976;BME280;70437;49.466;11.002;2023-11-22T08:31:24;99076.41;;;3.28;100.00
80976;BME280;70437;49.466;11.002;2023-11-22T08:33:53;99067.53;;;3.37;100.00
80976;BME280;70437;49.466;11.002;2023-11-22T08:36:22;99069.06;;;3.40;100.00
80976;BME280;70437;49.466;11.002;2023-11-22T08:38:51;99070.47;;;3.34;100.00
80976;BME280;70437;49.466;11.002;2023-11-22T08:41:23;99076.41;;;3.28;100.00
80976;BME280;70437;49.466;11.002;2023-11-22T08:43:53;99060.75;;;3.17;100.00
80976;BME280;70437;49.466;11.002;2023-11-22T08:46:24;99070.28;;;3.27;100.00
80976;BME280;70437;49.466;11.002;2023-11-22T08:48:54;99062.56;;;3.16;100.00
80976;BME280;70437;49.466;11.002;2023-11-22T08:51:26;99084.66;;;3.07;100.00
80976;BME280;70437;49.466;11.002;2023-11-22T08:53:55;99082.56;;;3.11;100.00
80976;BME280;70437;49.466;11.002;2023-11-22T08:56:28;99089.13;;;3.24;100.00
80976;BME280;70437;49.466;11.002;2023-11-22T08:58:58;99092.97;;;3.12;100.00
80976;BME280;70437;49.466;11.002;2023-11-22T09:01:28;99090.47;;;3.28;100.00
80976;BME280;70437;49.466;11.002;2023-11-22T09:03:58;99089.66;;;3.10;100.00
80976;BME280;70437;49.466;11.002;2023-11-22T09:06:28;99084.41;;;3.36;100.00
80976;BME280;70437;49.466;11.002;2023-11-22T09:08:58;99089.13;;;3.24;100.00
80976;BME280;70437;49.466;11.002;2023-11-22T09:11:29;99092.53;;;3.17;100.00
80976;BME280;70437;49.466;11.002;2023-11-22T09:13:59;99092.53;;;3.17;100.00
80976;BME280;70437;49.466;11.002;2023-11-22T09:16:35;99097.34;;;3.21;100.00
80976;BME280;70437;49.466;11.002;2023-11-22T09:19:05;99090.78;;;3.25;100.00
80976;BME280;70437;49.466;11.002;2023-11-22T09:21:37;99078.53;;;3.50;100.00
80976;BME280;70437;49.466;11.002;2023-11-22T09:24:09;99083.28;;;3.21;100.00
80976;BME280;70437;49.466;11.002;2023-11-22T09:26:40;99083.41;;;3.37;100.00
80976;BME280;70437;49.466;11.002;2023-11-22T09:29:10;99084.31;;;3.46;100.00
80976;BME280;70437;49.466;11.002;2023-11-22T09:31:43;99085.06;;;3.38;100.00
80976;BME280;70437;49.466;11.002;2023-11-22T09:34:15;99080.84;;;3.45;100.00
80976;BME280;70437;49.466;11.002;2023-11-22T09:36:45;99084.50;;;3.26;100.00
80976;BME280;70437;49.466;11.002;2023-11-22T09:39:15;99088.53;;;3.31;100.00
80976;BME280;70437;49.466;11.002;2023-11-22T09:41:51;99094.50;;;3.15;100.00
80976;BME280;70437;49.466;11.002;2023-11-22T09:44:20;99092.53;;;3.17;100.00
80976;BME280;70437;49.466;11.002;2023-11-22T09:46:50;99097.69;;;3.18;100.00
80976;BME280;70437;49.466;11.002;2023-11-22T09:49:25;99095.59;;;3.30;100.00
80976;BME280;70437;49.466;11.002;2023-11-22T09:52:01;99103.13;;;3.17;100.00
80976;BME280;70437;49.466;11.002;2023-11-22T09:54:31;99112.22;;;3.14;100.00
80976;BME280;70437;49.466;11.002;2023-11-22T09:57:11;99118.78;;;3.10;100.00
80976;BME280;70437;49.466;11.002;2023-11-22T09:59:41;99136.72;;;3.16;100.00
80976;BME280;70437;49.466;11.002;2023-11-22T10:02:13;99127.09;;;2.97;100.00
80976;BME280;70437;49.466;11.002;2023-11-22T10:04:43;99132.56;;;2.96;100.00
80976;BME280;70437;49.466;11.002;2023-11-22T10:07:14;99135.78;;;2.90;100.00
80976;BME280;70437;49.466;11.002;2023-11-22T10:09:45;99140.19;;;2.99;100.00
80976;BME280;70437;49.466;11.002;2023-11-22T10:12:20;99141.78;;;3.10;100.00
80976;BME280;70437;49.466;11.002;2023-11-22T10:14:49;99144.72;;;3.07;100.00
80976;BME280;70437;49.466;11.002;2023-11-22T10:17:22;99142.09;;;3.24;100.00
80976;BME280;70437;49.466;11.002;2023-11-22T10:19:53;99152.75;;;3.33;100.00
80976;BME280;70437;49.466;11.002;2023-11-22T10:22:25;99151.09;;;3.32;100.00
80976;BME280;70437;49.466;11.002;2023-11-22T10:24:58;99152.22;;;3.47;100.00
80976;BME280;70437;49.466;11.002;2023-11-22T10:27:30;99147.03;;;3.63;100.00
80976;BME280;70437;49.466;11.002;2023-11-22T10:29:58;99149.41;;;3.48;99.40
80976;BME280;70437;49.466;11.002;2023-11-22T10:32:28;99150.81;;;3.61;99.56
80976;BME280;70437;49.466;11.002;2023-11-22T10:34:58;99143.03;;;3.59;100.00
80976;BME280;70437;49.466;11.002;2023-11-22T10:37:28;99150.16;;;3.59;100.00
80976;BME280;70437;49.466;11.002;2023-11-22T10:39:58;99157.41;;;3.57;100.00
80976;BME280;70437;49.466;11.002;2023-11-22T10:42:27;99156.59;;;3.56;98.80
80976;BME280;70437;49.466;11.002;2023-11-22T10:45:00;99143.44;;;3.46;100.00
80976;BME280;70437;49.466;11.002;2023-11-22T10:47:37;99137.97;;;3.48;100.00
80976;BME280;70437;49.466;11.002;2023-11-22T10:50:07;99138.97;;;3.47;100.00
80976;BME280;70437;49.466;11.002;2023-11-22T10:52:40;99134.25;;;3.59;100.00
80976;BME280;70437;49.466;11.002;2023-11-22T10:55:12;99134.41;;;3.83;96.44
80976;BME280;70437;49.466;11.002;2023-11-22T10:57:45;99136.81;;;3.68;98.95
80976;BME280;70437;49.466;11.002;2023-11-22T11:00:19;99132.91;;;3.80;96.10
80976;BME280;70437;49.466;11.002;2023-11-22T11:02:54;99130.88;;;3.74;95.96
80976;BME280;70437;49.466;11.002;2023-11-22T11:05:31;99127.44;;;3.82;95.31
80976;BME280;70437;49.466;11.002;2023-11-22T11:08:07;99134.75;;;3.80;99.02
80976;BME280;70437;49.466;11.002;2023-11-22T11:10:39;99130.75;;;3.76;99.50
80976;BME280;70437;49.466;11.002;2023-11-22T11:13:09;99144.22;;;3.65;99.70
80976;BME280;70437;49.466;11.002;2023-11-22T11:15:42;99158.97;;;3.41;100.00
80976;BME280;70437;49.466;11.002;2023-11-22T11:18:13;99152.59;;;3.34;100.00
80976;BME280;70437;49.466;11.002;2023-11-22T11:20:47;99155.31;;;4.12;94.98
80976;BME280;70437;49.466;11.002;2023-11-22T11:23:19;99153.66;;;4.19;98.28
80976;BME280;70437;49.466;11.002;2023-11-22T11:25:53;99153.50;;;4.13;94.72
80976;BME280;70437;49.466;11.002;2023-11-22T11:28:23;99157.88;;;4.30;97.70
80976;BME280;70437;49.466;11.002;2023-11-22T11:30:58;99155.63;;;4.43;92.65
80976;BME280;70437;49.466;11.002;2023-11-22T11:33:34;99156.59;;;4.34;90.32
80976;BME280;70437;49.466;11.002;2023-11-22T11:36:07;99172.28;;;4.27;93.68
80976;BME280;70437;49.466;11.002;2023-11-22T11:38:40;99171.63;;;3.99;92.98
80976;BME280;70437;49.466;11.002;2023-11-22T11:41:10;99175.06;;;3.92;95.72
80976;BME280;70437;49.466;11.002;2023-11-22T11:43:47;99175.41;;;3.89;96.57
80976;BME280;70437;49.466;11.002;2023-11-22T11:46:18;99165.63;;;4.15;93.73
80976;BME280;70437;49.466;11.002;2023-11-22T11:48:52;99176.47;;;4.30;92.04
80976;BME280;70437;49.466;11.002;2023-11-22T11:51:23;99171.28;;;4.28;87.79
80976;BME280;70437;49.466;11.002;2023-11-22T11:53:53;99178.63;;;4.35;89.58
80976;BME280;70437;49.466;11.002;2023-11-22T11:56:23;99171.69;;;4.34;92.10
80976;BME280;70437;49.466;11.002;2023-11-22T11:58:56;99179.66;;;4.08;90.35
80976;BME280;70437;49.466;11.002;2023-11-22T12:01:31;99190.72;;;4.03;89.99
80976;BME280;70437;49.466;11.002;2023-11-22T12:04:01;99179.38;;;4.19;96.67
80976;BME280;70437;49.466;11.002;2023-11-22T12:06:31;99185.47;;;4.11;91.06
80976;BME280;70437;49.466;11.002;2023-11-22T12:09:04;99204.28;;;4.00;90.04
80976;BME280;70437;49.466;11.002;2023-11-22T12:11:36;99206.84;;;4.10;90.26
80976;BME280;70437;49.466;11.002;2023-11-22T12:14:05;99207.09;;;3.98;92.18
80976;BME280;70437;49.466;11.002;2023-11-22T12:16:36;99223.78;;;3.91;91.21
80976;BME280;70437;49.466;11.002;2023-11-22T12:19:06;99217.78;;;4.07;89.76
80976;BME280;70437;49.466;11.002;2023-11-22T12:21:36;99217.75;;;3.80;90.82
80976;BME280;70437;49.466;11.002;2023-11-22T12:24:05;99224.09;;;3.88;91.64
80976;BME280;70437;49.466;11.002;2023-11-22T12:26:40;99213.00;;;3.92;90.38
80976;BME280;70437;49.466;11.002;2023-11-22T12:29:11;99201.44;;;3.93;88.85
80976;BME280;70437;49.466;11.002;2023-11-22T12:31:46;99208.88;;;3.90;90.81
80976;BME280;70437;49.466;11.002;2023-11-22T12:34:19;99207.38;;;4.13;89.20
80976;BME280;70437;49.466;11.002;2023-11-22T12:36:49;99219.00;;;3.94;88.72
80976;BME280;70437;49.466;11.002;2023-11-22T12:39:20;99211.31;;;4.09;89.61
80976;BME280;70437;49.466;11.002;2023-11-22T12:41:53;99199.72;;;4.10;92.45
80976;BME280;70437;49.466;11.002;2023-11-22T12:44:47;99201.38;;;3.85;89.55
80976;BME280;70437;49.466;11.002;2023-11-22T12:47:32;99210.16;;;3.86;90.54
80976;BME280;70437;49.466;11.002;2023-11-22T12:50:04;99216.53;;;3.75;93.73
80976;BME280;70437;49.466;11.002;2023-11-22T12:52:35;99206.72;;;3.67;91.52
80976;BME280;70437;49.466;11.002;2023-11-22T12:55:05;99199.50;;;3.60;93.61
80976;BME280;70437;49.466;11.002;2023-11-22T12:57:40;99192.59;;;3.85;91.52
80976;BME280;70437;49.466;11.002;2023-11-22T13:00:13;99193.25;;;3.87;90.31
80976;BME280;70437;49.466;11.002;2023-11-22T13:02:44;99205.16;;;3.83;89.91
80976;BME280;70437;49.466;11.002;2023-11-22T13:05:29;99205.25;;;3.73;89.45
80976;BME280;70437;49.466;11.002;2023-11-22T13:07:59;99211.91;;;3.77;90.03
80976;BME280;70437;49.466;11.002;2023-11-22T13:10:31;99220.06;;;3.84;90.11
80976;BME280;70437;49.466;11.002;2023-11-22T13:13:00;99213.22;;;3.73;90.03